sensor_id;sensor_type;location;lat;lon;timestamp;temperature;humidity
488;DHT22;16586;48.976;9.584;2022-08-03T00:00:57;22.10;39.80
488;DHT22;16586;48.976;9.584;2022-08-03T00:03:25;22.10;41.30
488;DHT22;16586;48.976;9.584;2022-08-03T00:05:53;21.80;39.20
488;DHT22;16586;48.976;9.584;2022-08-03T00:08:20;21.90;39.90
488;DHT22;16586;48.976;9.584;2022-08-03T00:10:47;21.70;39.90
488;DHT22;16586;48.976;9.584;2022-08-03T00:13:14;21.80;39.50
488;DHT22;16586;48.976;9.584;2022-08-03T00:15:41;21.70;40.40
488;DHT22;16586;48.976;9.584;2022-08-03T00:18:08;21.60;39.40
488;DHT22;16586;48.976;9.584;2022-08-03T00:20:37;21.60;39.50
488;DHT22;16586;48.976;9.584;2022-08-03T00:23:06;21.00;39.40
488;DHT22;16586;48.976;9.584;2022-08-03T00:25:34;21.60;40.00
488;DHT22;16586;48.976;9.584;2022-08-03T00:28:01;21.60;40.80
488;DHT22;16586;48.976;9.584;2022-08-03T00:30:28;21.50;41.10
488;DHT22;16586;48.976;9.584;2022-08-03T00:32:55;21.50;40.30
488;DHT22;16586;48.976;9.584;2022-08-03T00:35:23;21.70;42.50
488;DHT22;16586;48.976;9.584;2022-08-03T00:37:51;22.50;41.60
488;DHT22;16586;48.976;9.584;2022-08-03T00:40:19;20.90;40.40
488;DHT22;16586;48.976;9.584;2022-08-03T00:42:50;21.40;41.90
488;DHT22;16586;48.976;9.584;2022-08-03T00:45:19;21.60;41.70
488;DHT22;16586;48.976;9.584;2022-08-03T00:47:46;21.20;42.20
488;DHT22;16586;48.976;9.584;2022-08-03T00:50:14;21.20;42.60
488;DHT22;16586;48.976;9.584;2022-08-03T00:52:41;21.20;41.30
488;DHT22;16586;48.976;9.584;2022-08-03T00:55:10;21.20;41.00
488;DHT22;16586;48.976;9.584;2022-08-03T00:57:38;21.10;42.60
488;DHT22;16586;48.976;9.584;2022-08-03T01:00:06;21.10;43.60
488;DHT22;16586;48.976;9.584;2022-08-03T01:02:37;21.00;41.50
488;DHT22;16586;48.976;9.584;2022-08-03T01:05:05;21.00;41.70
488;DHT22;16586;48.976;9.584;2022-08-03T01:07:40;21.30;42.10
488;DHT22;16586;48.976;9.584;2022-08-03T01:10:16;21.10;42.90
488;DHT22;16586;48.976;9.584;2022-08-03T01:12:54;20.90;42.40
488;DHT22;16586;48.976;9.584;2022-08-03T01:15:28;21.00;42.70
488;DHT22;16586;48.976;9.584;2022-08-03T01:18:01;21.00;42.70
488;DHT22;16586;48.976;9.584;2022-08-03T01:20:33;20.90;41.90
488;DHT22;16586;48.976;9.584;2022-08-03T01:23:31;20.90;41.90
488;DHT22;16586;48.976;9.584;2022-08-03T01:26:36;20.90;42.50
488;DHT22;16586;48.976;9.584;2022-08-03T01:32:02;20.90;42.50
488;DHT22;16586;48.976;9.584;2022-08-03T01:34:36;20.80;41.80
488;DHT22;16586;48.976;9.584;2022-08-03T01:37:08;20.80;42.70
488;DHT22;16586;48.976;9.584;2022-08-03T01:39:38;20.80;42.80
488;DHT22;16586;48.976;9.584;2022-08-03T01:42:08;20.80;41.80
488;DHT22;16586;48.976;9.584;2022-08-03T01:44:39;20.70;41.70
488;DHT22;16586;48.976;9.584;2022-08-03T01:47:09;20.70;42.50
488;DHT22;16586;48.976;9.584;2022-08-03T01:49:39;20.70;42.20
488;DHT22;16586;48.976;9.584;2022-08-03T01:52:10;20.70;42.60
488;DHT22;16586;48.976;9.584;2022-08-03T01:54:42;20.60;41.90
488;DHT22;16586;48.976;9.584;2022-08-03T01:57:10;20.90;43.20
488;DHT22;16586;48.976;9.584;2022-08-03T01:59:38;20.60;42.70
488;DHT22;16586;48.976;9.584;2022-08-03T02:02:07;20.50;42.10
488;DHT22;16586;48.976;9.584;2022-08-03T02:04:38;20.80;43.40
488;DHT22;16586;48.976;9.584;2022-08-03T02:07:05;20.50;43.30
488;DHT22;16586;48.976;9.584;2022-08-03T02:09:33;20.50;42.30
488;DHT22;16586;48.976;9.584;2022-08-03T02:12:05;20.50;42.30
488;DHT22;16586;48.976;9.584;2022-08-03T02:14:33;20.50;42.90
488;DHT22;16586;48.976;9.584;2022-08-03T02:17:00;20.50;42.60
488;DHT22;16586;48.976;9.584;2022-08-03T02:19:29;20.50;42.40
488;DHT22;16586;48.976;9.584;2022-08-03T02:21:58;20.50;42.30
488;DHT22;16586;48.976;9.584;2022-08-03T02:24:26;20.60;43.30
488;DHT22;16586;48.976;9.584;2022-08-03T02:26:55;20.40;43.30
488;DHT22;16586;48.976;9.584;2022-08-03T02:29:24;20.30;42.80
488;DHT22;16586;48.976;9.584;2022-08-03T02:31:54;20.30;44.10
488;DHT22;16586;48.976;9.584;2022-08-03T02:34:24;20.30;43.60
488;DHT22;16586;48.976;9.584;2022-08-03T02:36:55;20.30;42.90
488;DHT22;16586;48.976;9.584;2022-08-03T02:39:27;20.20;42.80
488;DHT22;16586;48.976;9.584;2022-08-03T02:42:00;20.20;43.60
488;DHT22;16586;48.976;9.584;2022-08-03T02:44:29;20.20;43.20
488;DHT22;16586;48.976;9.584;2022-08-03T02:47:01;20.30;43.70
488;DHT22;16586;48.976;9.584;2022-08-03T02:49:29;20.30;43.70
488;DHT22;16586;48.976;9.584;2022-08-03T02:51:58;20.70;44.60
488;DHT22;16586;48.976;9.584;2022-08-03T02:54:26;20.30;43.20
488;DHT22;16586;48.976;9.584;2022-08-03T02:56:54;20.20;44.00
488;DHT22;16586;48.976;9.584;2022-08-03T02:59:23;20.10;44.00
488;DHT22;16586;48.976;9.584;2022-08-03T03:01:52;20.70;44.90
488;DHT22;16586;48.976;9.584;2022-08-03T03:04:20;20.10;43.40
488;DHT22;16586;48.976;9.584;2022-08-03T03:06:49;20.20;44.30
488;DHT22;16586;48.976;9.584;2022-08-03T03:09:19;20.10;43.90
488;DHT22;16586;48.976;9.584;2022-08-03T03:11:48;20.20;44.00
488;DHT22;16586;48.976;9.584;2022-08-03T03:14:17;20.20;43.40
488;DHT22;16586;48.976;9.584;2022-08-03T03:16:45;20.20;44.00
488;DHT22;16586;48.976;9.584;2022-08-03T03:19:14;20.20;44.50
488;DHT22;16586;48.976;9.584;2022-08-03T03:21:42;20.10;44.20
488;DHT22;16586;48.976;9.584;2022-08-03T03:24:09;20.10;44.80
488;DHT22;16586;48.976;9.584;2022-08-03T03:26:38;20.10;43.70
488;DHT22;16586;48.976;9.584;2022-08-03T03:29:06;20.10;43.80
488;DHT22;16586;48.976;9.584;2022-08-03T03:31:34;20.10;44.60
488;DHT22;16586;48.976;9.584;2022-08-03T03:34:02;19.50;43.70
488;DHT22;16586;48.976;9.584;2022-08-03T03:36:29;20.00;44.10
488;DHT22;16586;48.976;9.584;2022-08-03T03:38:56;19.90;44.20
488;DHT22;16586;48.976;9.584;2022-08-03T03:41:23;19.90;44.30
488;DHT22;16586;48.976;9.584;2022-08-03T03:43:52;20.10;45.50
488;DHT22;16586;48.976;9.584;2022-08-03T03:46:19;19.90;44.20
488;DHT22;16586;48.976;9.584;2022-08-03T03:48:46;19.90;44.30
488;DHT22;16586;48.976;9.584;2022-08-03T03:51:14;19.90;45.00
488;DHT22;16586;48.976;9.584;2022-08-03T03:53:54;19.90;45.40
488;DHT22;16586;48.976;9.584;2022-08-03T03:56:21;20.00;45.00
488;DHT22;16586;48.976;9.584;2022-08-03T03:58:48;19.90;44.70
488;DHT22;16586;48.976;9.584;2022-08-03T04:01:17;19.80;45.00
488;DHT22;16586;48.976;9.584;2022-08-03T04:03:44;19.80;45.40
488;DHT22;16586;48.976;9.584;2022-08-03T04:06:11;19.80;44.60
488;DHT22;16586;48.976;9.584;2022-08-03T04:08:56;19.90;45.40
488;DHT22;16586;48.976;9.584;2022-08-03T04:11:44;19.80;44.60
488;DHT22;16586;48.976;9.584;2022-08-03T04:14:16;20.00;45.80
488;DHT22;16586;48.976;9.584;2022-08-03T04:16:49;19.80;45.60
488;DHT22;16586;48.976;9.584;2022-08-03T04:19:21;19.80;45.80
488;DHT22;16586;48.976;9.584;2022-08-03T04:21:51;19.80;45.90
488;DHT22;16586;48.976;9.584;2022-08-03T04:24:21;19.80;45.40
488;DHT22;16586;48.976;9.584;2022-08-03T04:26:50;19.80;45.20
488;DHT22;16586;48.976;9.584;2022-08-03T04:29:18;20.10;45.40
488;DHT22;16586;48.976;9.584;2022-08-03T04:31:48;19.80;45.30
488;DHT22;16586;48.976;9.584;2022-08-03T04:34:16;19.70;46.30
488;DHT22;16586;48.976;9.584;2022-08-03T04:36:47;19.60;45.60
488;DHT22;16586;48.976;9.584;2022-08-03T04:39:22;19.70;45.90
488;DHT22;16586;48.976;9.584;2022-08-03T04:41:52;19.90;46.90
488;DHT22;16586;48.976;9.584;2022-08-03T04:44:23;19.70;46.60
488;DHT22;16586;48.976;9.584;2022-08-03T04:46:56;19.70;46.20
488;DHT22;16586;48.976;9.584;2022-08-03T04:49:24;19.70;46.10
488;DHT22;16586;48.976;9.584;2022-08-03T04:51:52;19.70;47.20
488;DHT22;16586;48.976;9.584;2022-08-03T04:54:19;19.70;47.90
488;DHT22;16586;48.976;9.584;2022-08-03T04:56:51;19.80;46.60
488;DHT22;16586;48.976;9.584;2022-08-03T04:59:19;19.80;46.50
488;DHT22;16586;48.976;9.584;2022-08-03T05:01:46;19.80;47.80
488;DHT22;16586;48.976;9.584;2022-08-03T05:04:15;19.20;46.00
488;DHT22;16586;48.976;9.584;2022-08-03T05:06:44;19.80;46.60
488;DHT22;16586;48.976;9.584;2022-08-03T05:09:10;20.90;47.70
488;DHT22;16586;48.976;9.584;2022-08-03T05:11:37;19.80;47.00
488;DHT22;16586;48.976;9.584;2022-08-03T05:14:04;19.70;46.70
488;DHT22;16586;48.976;9.584;2022-08-03T05:16:31;19.70;46.60
488;DHT22;16586;48.976;9.584;2022-08-03T05:18:59;20.00;48.70
488;DHT22;16586;48.976;9.584;2022-08-03T05:21:28;20.20;48.50
488;DHT22;16586;48.976;9.584;2022-08-03T05:23:57;20.00;46.50
488;DHT22;16586;48.976;9.584;2022-08-03T05:26:27;20.10;47.40
488;DHT22;16586;48.976;9.584;2022-08-03T05:28:54;20.20;48.30
488;DHT22;16586;48.976;9.584;2022-08-03T05:31:21;20.20;46.40
488;DHT22;16586;48.976;9.584;2022-08-03T05:33:48;20.30;48.00
488;DHT22;16586;48.976;9.584;2022-08-03T05:36:15;20.30;46.50
488;DHT22;16586;48.976;9.584;2022-08-03T05:38:43;20.30;47.60
488;DHT22;16586;48.976;9.584;2022-08-03T05:41:11;20.30;47.30
488;DHT22;16586;48.976;9.584;2022-08-03T05:43:38;20.40;47.20
488;DHT22;16586;48.976;9.584;2022-08-03T05:46:05;20.40;46.50
488;DHT22;16586;48.976;9.584;2022-08-03T05:48:32;20.50;48.00
488;DHT22;16586;48.976;9.584;2022-08-03T05:50:59;20.50;46.60
488;DHT22;16586;48.976;9.584;2022-08-03T05:53:26;20.30;46.30
488;DHT22;16586;48.976;9.584;2022-08-03T05:55:55;20.60;46.80
488;DHT22;16586;48.976;9.584;2022-08-03T05:58:22;20.60;46.70
488;DHT22;16586;48.976;9.584;2022-08-03T06:00:51;20.70;46.70
488;DHT22;16586;48.976;9.584;2022-08-03T06:03:22;20.80;48.80
488;DHT22;16586;48.976;9.584;2022-08-03T06:05:49;20.90;48.30
488;DHT22;16586;48.976;9.584;2022-08-03T06:08:16;21.00;47.20
488;DHT22;16586;48.976;9.584;2022-08-03T06:10:43;20.90;47.20
488;DHT22;16586;48.976;9.584;2022-08-03T06:13:12;20.90;48.40
488;DHT22;16586;48.976;9.584;2022-08-03T06:15:39;21.00;47.40
488;DHT22;16586;48.976;9.584;2022-08-03T06:18:06;21.10;47.60
488;DHT22;16586;48.976;9.584;2022-08-03T06:20:34;21.50;48.30
488;DHT22;16586;48.976;9.584;2022-08-03T06:23:01;21.40;49.00
488;DHT22;16586;48.976;9.584;2022-08-03T06:25:28;21.20;47.60
488;DHT22;16586;48.976;9.584;2022-08-03T06:27:56;21.30;49.20
488;DHT22;16586;48.976;9.584;2022-08-03T06:30:25;21.30;48.60
488;DHT22;16586;48.976;9.584;2022-08-03T06:32:53;21.40;49.50
488;DHT22;16586;48.976;9.584;2022-08-03T06:35:21;21.40;47.80
488;DHT22;16586;48.976;9.584;2022-08-03T06:37:50;21.50;47.70
488;DHT22;16586;48.976;9.584;2022-08-03T06:40:20;21.80;49.10
488;DHT22;16586;48.976;9.584;2022-08-03T06:42:53;21.70;48.60
488;DHT22;16586;48.976;9.584;2022-08-03T06:45:20;21.90;48.30
488;DHT22;16586;48.976;9.584;2022-08-03T06:47:59;22.70;48.50
488;DHT22;16586;48.976;9.584;2022-08-03T06:50:26;22.00;48.60
488;DHT22;16586;48.976;9.584;2022-08-03T06:52:53;22.00;47.80
488;DHT22;16586;48.976;9.584;2022-08-03T06:55:20;22.10;48.70
488;DHT22;16586;48.976;9.584;2022-08-03T06:57:47;22.00;47.40
488;DHT22;16586;48.976;9.584;2022-08-03T07:00:15;22.30;49.50
488;DHT22;16586;48.976;9.584;2022-08-03T07:02:42;22.30;47.80
488;DHT22;16586;48.976;9.584;2022-08-03T07:05:11;22.00;47.40
488;DHT22;16586;48.976;9.584;2022-08-03T07:07:38;22.50;48.20
488;DHT22;16586;48.976;9.584;2022-08-03T07:10:06;22.50;47.20
488;DHT22;16586;48.976;9.584;2022-08-03T07:12:34;22.70;47.10
488;DHT22;16586;48.976;9.584;2022-08-03T07:15:02;22.80;47.80
488;DHT22;16586;48.976;9.584;2022-08-03T07:17:31;22.90;47.70
488;DHT22;16586;48.976;9.584;2022-08-03T07:19:59;23.00;48.80
488;DHT22;16586;48.976;9.584;2022-08-03T07:22:27;23.10;47.20
488;DHT22;16586;48.976;9.584;2022-08-03T07:24:54;23.20;46.90
488;DHT22;16586;48.976;9.584;2022-08-03T07:27:22;23.30;47.90
488;DHT22;16586;48.976;9.584;2022-08-03T07:29:51;23.40;46.80
488;DHT22;16586;48.976;9.584;2022-08-03T07:32:18;23.50;46.70
488;DHT22;16586;48.976;9.584;2022-08-03T07:34:45;24.50;46.80
488;DHT22;16586;48.976;9.584;2022-08-03T07:37:12;23.40;46.00
488;DHT22;16586;48.976;9.584;2022-08-03T07:39:40;23.80;46.40
488;DHT22;16586;48.976;9.584;2022-08-03T07:42:07;23.90;46.10
488;DHT22;16586;48.976;9.584;2022-08-03T07:44:34;24.30;46.40
488;DHT22;16586;48.976;9.584;2022-08-03T07:47:03;24.00;46.30
488;DHT22;16586;48.976;9.584;2022-08-03T07:49:38;24.10;47.10
488;DHT22;16586;48.976;9.584;2022-08-03T07:52:05;23.50;46.10
488;DHT22;16586;48.976;9.584;2022-08-03T07:54:51;24.30;45.40
488;DHT22;16586;48.976;9.584;2022-08-03T07:57:18;24.50;46.90
488;DHT22;16586;48.976;9.584;2022-08-03T07:59:45;25.20;45.60
488;DHT22;16586;48.976;9.584;2022-08-03T08:02:12;25.00;46.60
488;DHT22;16586;48.976;9.584;2022-08-03T08:04:39;24.80;46.90
488;DHT22;16586;48.976;9.584;2022-08-03T08:07:06;24.90;45.60
488;DHT22;16586;48.976;9.584;2022-08-03T08:09:34;25.00;43.30
488;DHT22;16586;48.976;9.584;2022-08-03T08:12:04;24.90;41.70
488;DHT22;16586;48.976;9.584;2022-08-03T08:14:32;25.30;39.30
488;DHT22;16586;48.976;9.584;2022-08-03T08:17:00;25.50;39.50
488;DHT22;16586;48.976;9.584;2022-08-03T08:19:27;26.60;38.00
488;DHT22;16586;48.976;9.584;2022-08-03T08:21:55;25.80;34.80
488;DHT22;16586;48.976;9.584;2022-08-03T08:24:24;26.00;36.00
488;DHT22;16586;48.976;9.584;2022-08-03T08:26:51;24.70;33.30
488;DHT22;16586;48.976;9.584;2022-08-03T08:29:19;28.00;34.60
488;DHT22;16586;48.976;9.584;2022-08-03T08:31:47;26.50;33.90
488;DHT22;16586;48.976;9.584;2022-08-03T08:34:15;26.70;34.40
488;DHT22;16586;48.976;9.584;2022-08-03T08:36:41;26.90;34.00
488;DHT22;16586;48.976;9.584;2022-08-03T08:39:08;26.90;31.60
488;DHT22;16586;48.976;9.584;2022-08-03T08:41:36;27.00;31.30
488;DHT22;16586;48.976;9.584;2022-08-03T08:44:04;27.20;33.50
488;DHT22;16586;48.976;9.584;2022-08-03T08:46:34;27.20;30.80
488;DHT22;16586;48.976;9.584;2022-08-03T08:49:01;26.90;30.00
488;DHT22;16586;48.976;9.584;2022-08-03T08:51:30;27.50;31.60
488;DHT22;16586;48.976;9.584;2022-08-03T08:54:01;27.60;29.90
488;DHT22;16586;48.976;9.584;2022-08-03T08:56:29;27.80;29.10
488;DHT22;16586;48.976;9.584;2022-08-03T08:58:59;28.00;29.80
488;DHT22;16586;48.976;9.584;2022-08-03T09:01:26;27.90;29.10
488;DHT22;16586;48.976;9.584;2022-08-03T09:03:55;27.90;28.70
488;DHT22;16586;48.976;9.584;2022-08-03T09:06:22;28.00;27.60
488;DHT22;16586;48.976;9.584;2022-08-03T09:08:49;28.20;28.70
488;DHT22;16586;48.976;9.584;2022-08-03T09:11:20;28.20;29.00
488;DHT22;16586;48.976;9.584;2022-08-03T09:13:47;28.30;28.10
488;DHT22;16586;48.976;9.584;2022-08-03T09:16:16;28.40;28.20
488;DHT22;16586;48.976;9.584;2022-08-03T09:18:46;28.50;28.80
488;DHT22;16586;48.976;9.584;2022-08-03T09:21:21;28.70;28.20
488;DHT22;16586;48.976;9.584;2022-08-03T09:23:50;28.60;27.50
488;DHT22;16586;48.976;9.584;2022-08-03T09:26:21;28.70;27.70
488;DHT22;16586;48.976;9.584;2022-08-03T09:28:56;28.90;27.70
488;DHT22;16586;48.976;9.584;2022-08-03T09:31:30;28.90;27.50
488;DHT22;16586;48.976;9.584;2022-08-03T09:34:01;29.10;26.40
488;DHT22;16586;48.976;9.584;2022-08-03T09:36:40;29.00;26.50
488;DHT22;16586;48.976;9.584;2022-08-03T09:39:09;29.10;27.40
488;DHT22;16586;48.976;9.584;2022-08-03T09:41:37;29.10;25.60
488;DHT22;16586;48.976;9.584;2022-08-03T09:44:04;29.10;25.80
488;DHT22;16586;48.976;9.584;2022-08-03T09:46:41;29.50;26.70
488;DHT22;16586;48.976;9.584;2022-08-03T09:49:12;29.30;26.30
488;DHT22;16586;48.976;9.584;2022-08-03T09:51:41;29.50;24.50
488;DHT22;16586;48.976;9.584;2022-08-03T09:54:08;29.40;25.00
488;DHT22;16586;48.976;9.584;2022-08-03T09:56:39;29.60;26.10
488;DHT22;16586;48.976;9.584;2022-08-03T09:59:07;29.90;26.50
488;DHT22;16586;48.976;9.584;2022-08-03T10:01:35;29.80;26.00
488;DHT22;16586;48.976;9.584;2022-08-03T10:04:03;29.90;25.70
488;DHT22;16586;48.976;9.584;2022-08-03T10:06:30;29.90;25.40
488;DHT22;16586;48.976;9.584;2022-08-03T10:09:06;30.10;26.40
488;DHT22;16586;48.976;9.584;2022-08-03T10:11:34;30.20;25.60
488;DHT22;16586;48.976;9.584;2022-08-03T10:14:05;30.20;25.00
488;DHT22;16586;48.976;9.584;2022-08-03T10:16:34;30.40;24.50
488;DHT22;16586;48.976;9.584;2022-08-03T10:19:02;30.30;24.30
488;DHT22;16586;48.976;9.584;2022-08-03T10:21:33;30.40;24.00
488;DHT22;16586;48.976;9.584;2022-08-03T10:24:02;30.60;24.30
488;DHT22;16586;48.976;9.584;2022-08-03T10:26:33;30.70;23.50
488;DHT22;16586;48.976;9.584;2022-08-03T10:29:02;30.80;23.60
488;DHT22;16586;48.976;9.584;2022-08-03T10:31:34;31.00;24.60
488;DHT22;16586;48.976;9.584;2022-08-03T10:34:06;31.00;24.50
488;DHT22;16586;48.976;9.584;2022-08-03T10:36:35;31.00;23.30
488;DHT22;16586;48.976;9.584;2022-08-03T10:39:03;31.20;23.30
488;DHT22;16586;48.976;9.584;2022-08-03T10:41:40;31.30;23.30
488;DHT22;16586;48.976;9.584;2022-08-03T10:44:12;31.50;23.70
488;DHT22;16586;48.976;9.584;2022-08-03T10:46:41;31.50;23.30
488;DHT22;16586;48.976;9.584;2022-08-03T10:49:11;31.60;23.30
488;DHT22;16586;48.976;9.584;2022-08-03T10:51:39;31.60;22.40
488;DHT22;16586;48.976;9.584;2022-08-03T10:54:07;31.70;23.30
488;DHT22;16586;48.976;9.584;2022-08-03T10:56:55;31.50;23.30
488;DHT22;16586;48.976;9.584;2022-08-03T11:00:04;31.70;22.10
488;DHT22;16586;48.976;9.584;2022-08-03T11:03:05;31.90;22.60
488;DHT22;16586;48.976;9.584;2022-08-03T11:05:35;32.00;22.40
488;DHT22;16586;48.976;9.584;2022-08-03T11:08:35;32.10;22.50
488;DHT22;16586;48.976;9.584;2022-08-03T11:11:25;32.10;21.30
488;DHT22;16586;48.976;9.584;2022-08-03T11:14:00;32.30;22.10
488;DHT22;16586;48.976;9.584;2022-08-03T11:16:30;32.50;22.70
488;DHT22;16586;48.976;9.584;2022-08-03T11:19:00;32.60;21.60
488;DHT22;16586;48.976;9.584;2022-08-03T11:21:53;32.50;21.30
488;DHT22;16586;48.976;9.584;2022-08-03T11:24:57;32.40;21.10
488;DHT22;16586;48.976;9.584;2022-08-03T11:27:26;32.50;20.60
488;DHT22;16586;48.976;9.584;2022-08-03T11:29:57;32.70;21.30
488;DHT22;16586;48.976;9.584;2022-08-03T11:32:50;32.80;21.50
488;DHT22;16586;48.976;9.584;2022-08-03T11:35:18;32.80;20.40
488;DHT22;16586;48.976;9.584;2022-08-03T11:38:08;32.70;20.40
488;DHT22;16586;48.976;9.584;2022-08-03T11:40:38;32.90;20.90
488;DHT22;16586;48.976;9.584;2022-08-03T11:43:06;32.90;20.80
488;DHT22;16586;48.976;9.584;2022-08-03T11:45:35;32.90;20.00
488;DHT22;16586;48.976;9.584;2022-08-03T11:48:13;32.90;19.90
488;DHT22;16586;48.976;9.584;2022-08-03T11:50:41;33.10;19.70
488;DHT22;16586;48.976;9.584;2022-08-03T11:53:13;33.10;19.50
488;DHT22;16586;48.976;9.584;2022-08-03T11:55:41;33.30;20.30
488;DHT22;16586;48.976;9.584;2022-08-03T11:58:15;33.40;19.80
488;DHT22;16586;48.976;9.584;2022-08-03T12:00:44;33.70;19.60
488;DHT22;16586;48.976;9.584;2022-08-03T12:03:12;33.40;19.40
488;DHT22;16586;48.976;9.584;2022-08-03T12:05:47;33.50;19.30
488;DHT22;16586;48.976;9.584;2022-08-03T12:08:16;33.40;19.90
488;DHT22;16586;48.976;9.584;2022-08-03T12:10:48;33.50;20.30
488;DHT22;16586;48.976;9.584;2022-08-03T12:13:16;33.80;20.90
488;DHT22;16586;48.976;9.584;2022-08-03T12:15:50;33.80;20.30
488;DHT22;16586;48.976;9.584;2022-08-03T12:18:18;33.60;18.70
488;DHT22;16586;48.976;9.584;2022-08-03T12:20:47;33.80;19.90
488;DHT22;16586;48.976;9.584;2022-08-03T12:23:14;33.60;19.00
488;DHT22;16586;48.976;9.584;2022-08-03T12:25:42;33.80;20.40
488;DHT22;16586;48.976;9.584;2022-08-03T12:28:12;33.80;19.90
488;DHT22;16586;48.976;9.584;2022-08-03T12:30:44;33.60;20.00
488;DHT22;16586;48.976;9.584;2022-08-03T12:33:15;33.70;20.60
488;DHT22;16586;48.976;9.584;2022-08-03T12:35:44;33.60;19.80
488;DHT22;16586;48.976;9.584;2022-08-03T12:38:12;33.50;19.30
488;DHT22;16586;48.976;9.584;2022-08-03T12:40:41;33.70;20.10
488;DHT22;16586;48.976;9.584;2022-08-03T12:43:12;33.40;20.30
488;DHT22;16586;48.976;9.584;2022-08-03T12:45:39;33.20;19.20
488;DHT22;16586;48.976;9.584;2022-08-03T12:48:09;33.30;21.00
488;DHT22;16586;48.976;9.584;2022-08-03T12:50:39;33.40;19.70
488;DHT22;16586;48.976;9.584;2022-08-03T12:53:07;33.40;19.60
488;DHT22;16586;48.976;9.584;2022-08-03T12:55:35;33.40;19.50
488;DHT22;16586;48.976;9.584;2022-08-03T12:58:05;33.80;20.00
488;DHT22;16586;48.976;9.584;2022-08-03T13:00:36;33.40;18.60
488;DHT22;16586;48.976;9.584;2022-08-03T13:03:04;33.30;18.90
488;DHT22;16586;48.976;9.584;2022-08-03T13:05:41;33.40;18.80
488;DHT22;16586;48.976;9.584;2022-08-03T13:08:17;32.20;18.80
488;DHT22;16586;48.976;9.584;2022-08-03T13:10:44;33.50;20.40
488;DHT22;16586;48.976;9.584;2022-08-03T13:13:11;33.00;19.00
488;DHT22;16586;48.976;9.584;2022-08-03T13:15:38;33.20;20.80
488;DHT22;16586;48.976;9.584;2022-08-03T13:18:05;33.10;20.40
488;DHT22;16586;48.976;9.584;2022-08-03T13:20:34;33.10;23.40
488;DHT22;16586;48.976;9.584;2022-08-03T13:23:01;33.00;23.30
488;DHT22;16586;48.976;9.584;2022-08-03T13:25:28;33.00;25.20
488;DHT22;16586;48.976;9.584;2022-08-03T13:27:54;33.60;22.40
488;DHT22;16586;48.976;9.584;2022-08-03T13:30:21;32.80;20.70
488;DHT22;16586;48.976;9.584;2022-08-03T13:32:48;32.60;20.40
488;DHT22;16586;48.976;9.584;2022-08-03T13:35:15;32.60;19.00
488;DHT22;16586;48.976;9.584;2022-08-03T13:37:44;32.80;20.30
488;DHT22;16586;48.976;9.584;2022-08-03T13:40:11;32.90;20.70
488;DHT22;16586;48.976;9.584;2022-08-03T13:42:37;33.10;20.00
488;DHT22;16586;48.976;9.584;2022-08-03T13:45:05;34.10;19.60
488;DHT22;16586;48.976;9.584;2022-08-03T13:47:33;33.30;19.80
488;DHT22;16586;48.976;9.584;2022-08-03T13:50:01;33.30;19.20
488;DHT22;16586;48.976;9.584;2022-08-03T13:52:32;33.40;19.20
488;DHT22;16586;48.976;9.584;2022-08-03T13:55:01;33.50;19.50
488;DHT22;16586;48.976;9.584;2022-08-03T13:57:28;33.60;20.00
488;DHT22;16586;48.976;9.584;2022-08-03T13:59:55;33.70;19.40
488;DHT22;16586;48.976;9.584;2022-08-03T14:02:22;33.80;20.90
488;DHT22;16586;48.976;9.584;2022-08-03T14:04:49;33.70;18.70
488;DHT22;16586;48.976;9.584;2022-08-03T14:07:16;34.40;20.10
488;DHT22;16586;48.976;9.584;2022-08-03T14:09:44;34.00;19.20
488;DHT22;16586;48.976;9.584;2022-08-03T14:12:12;33.10;17.50
488;DHT22;16586;48.976;9.584;2022-08-03T14:14:39;33.80;16.70
488;DHT22;16586;48.976;9.584;2022-08-03T14:17:06;35.00;17.10
488;DHT22;16586;48.976;9.584;2022-08-03T14:19:33;35.70;18.50
488;DHT22;16586;48.976;9.584;2022-08-03T14:22:00;35.00;17.20
488;DHT22;16586;48.976;9.584;2022-08-03T14:24:27;37.30;15.90
488;DHT22;16586;48.976;9.584;2022-08-03T14:26:54;38.40;14.70
488;DHT22;16586;48.976;9.584;2022-08-03T14:29:22;39.40;13.30
488;DHT22;16586;48.976;9.584;2022-08-03T14:31:49;40.00;11.40
488;DHT22;16586;48.976;9.584;2022-08-03T14:34:16;40.60;11.40
488;DHT22;16586;48.976;9.584;2022-08-03T14:36:43;40.90;11.20
488;DHT22;16586;48.976;9.584;2022-08-03T14:39:11;41.00;10.50
488;DHT22;16586;48.976;9.584;2022-08-03T14:41:38;41.10;10.90
488;DHT22;16586;48.976;9.584;2022-08-03T14:44:05;41.10;10.40
488;DHT22;16586;48.976;9.584;2022-08-03T14:46:34;41.10;10.80
488;DHT22;16586;48.976;9.584;2022-08-03T14:49:01;40.90;10.20
488;DHT22;16586;48.976;9.584;2022-08-03T14:51:29;40.70;10.10
488;DHT22;16586;48.976;9.584;2022-08-03T14:53:56;40.40;10.90
488;DHT22;16586;48.976;9.584;2022-08-03T14:56:23;40.20;11.00
488;DHT22;16586;48.976;9.584;2022-08-03T14:58:50;40.00;11.90
488;DHT22;16586;48.976;9.584;2022-08-03T15:01:17;40.10;12.20
488;DHT22;16586;48.976;9.584;2022-08-03T15:03:45;40.10;12.60
488;DHT22;16586;48.976;9.584;2022-08-03T15:06:13;40.10;12.20
488;DHT22;16586;48.976;9.584;2022-08-03T15:08:40;40.20;12.30
488;DHT22;16586;48.976;9.584;2022-08-03T15:11:06;40.30;11.90
488;DHT22;16586;48.976;9.584;2022-08-03T15:13:33;40.40;12.10
488;DHT22;16586;48.976;9.584;2022-08-03T15:16:00;39.90;10.50
488;DHT22;16586;48.976;9.584;2022-08-03T15:18:27;40.50;11.50
488;DHT22;16586;48.976;9.584;2022-08-03T15:20:55;40.40;11.60
488;DHT22;16586;48.976;9.584;2022-08-03T15:23:22;40.40;12.10
488;DHT22;16586;48.976;9.584;2022-08-03T15:25:51;40.20;11.30
488;DHT22;16586;48.976;9.584;2022-08-03T15:28:18;40.10;12.30
488;DHT22;16586;48.976;9.584;2022-08-03T15:30:45;40.00;11.70
488;DHT22;16586;48.976;9.584;2022-08-03T15:33:12;40.00;12.10
488;DHT22;16586;48.976;9.584;2022-08-03T15:35:39;39.90;12.30
488;DHT22;16586;48.976;9.584;2022-08-03T15:38:07;39.80;11.00
488;DHT22;16586;48.976;9.584;2022-08-03T15:40:34;39.90;12.60
488;DHT22;16586;48.976;9.584;2022-08-03T15:43:01;39.60;11.30
488;DHT22;16586;48.976;9.584;2022-08-03T15:45:28;39.70;12.60
488;DHT22;16586;48.976;9.584;2022-08-03T15:47:55;39.60;12.50
488;DHT22;16586;48.976;9.584;2022-08-03T15:50:22;38.40;10.70
488;DHT22;16586;48.976;9.584;2022-08-03T15:52:49;39.40;10.60
488;DHT22;16586;48.976;9.584;2022-08-03T15:55:17;39.20;12.00
488;DHT22;16586;48.976;9.584;2022-08-03T15:57:44;39.00;11.40
488;DHT22;16586;48.976;9.584;2022-08-03T16:00:12;37.50;10.20
488;DHT22;16586;48.976;9.584;2022-08-03T16:02:40;38.70;11.30
488;DHT22;16586;48.976;9.584;2022-08-03T16:05:07;38.40;10.70
488;DHT22;16586;48.976;9.584;2022-08-03T16:07:34;38.40;11.40
488;DHT22;16586;48.976;9.584;2022-08-03T16:10:13;38.40;12.40
488;DHT22;16586;48.976;9.584;2022-08-03T16:12:41;38.30;12.70
488;DHT22;16586;48.976;9.584;2022-08-03T16:15:10;38.20;11.90
488;DHT22;16586;48.976;9.584;2022-08-03T16:17:37;38.00;11.20
488;DHT22;16586;48.976;9.584;2022-08-03T16:20:05;37.90;12.00